Impacts TAF Board INFO
FOR SITUATIONAL AWARENESS. NOT TO BE USED FOR FLIGHT PLANNING PURPOSES.
IDs:

KIAD - Washington/Dulles In, VA, US

Issued at 2339 UTC 21 Jun 2018
Updated at 0318 UTC 22 Jun 2018
Potential Impact None Slight Moderate High
Time0252Z 22/04Z 22/05Z 22/06Z 22/07Z 22/08Z 22/09Z 22/10Z 22/11Z 22/12Z 22/13Z 22/14Z 22/15Z 22/16Z>>
Type OBS PRVL PRVL PRVL PRVL PRVL PRVL PRVL PRVL PRVL PRVL PRVL PRVL PRVL
VIS 10 6 6 6 6 6 5 5 5 5 5 5 5 5
CIG 40 25 25 25 25 25 15 15 15 25 25 25 25 25
Cover OVC OVC OVC OVC OVC OVC OVC OVC OVC BKN BKN BKN BKN BKN
FltCat VFR MVFR MVFR MVFR MVFR MVFR MVFR MVFR MVFR MVFR MVFR MVFR MVFR MVFR
WX -- -SHRA -SHRA -SHRA -SHRA -SHRA -SHRA -SHRA -SHRA -SHRA -SHRA -SHRA -SHRA -SHRA
WDir 70 90 90 90 90 90 80 80 80 90 90 90 90 90
WSpd 4 4 4 4 4 4 6 6 6 10 10 10 10 10
WGst -- -- -- -- -- -- -- -- -- 18 18 18 18 18

Raw TAF
KIAD 212339Z 2200/2306 04005KT 6SM -SHRA VCTS BKN050CB OVC150
  FM220100 05004KT P6SM VCSH SCT025 BKN050
  FM220400 09004KT 6SM -SHRA BKN025 OVC050
  FM220900 08006KT 5SM -SHRA SCT008 BKN015 OVC050
  FM221200 09010G18KT 5SM -SHRA SCT008 BKN025
  FM221800 09011G22KT P6SM BKN035
  FM230000 09009KT 5SM -SHRA OVC035


Raw METAR
KIAD 220252Z 07004KT 10SM BKN040CB OVC090 24/21 A2983 RMK AO2 SLP098 CB W MOV E T02390206 51006
KIAD 220152Z 04004KT 10SM FEW055 OVC090 24/21 A2983 RMK AO2 SLP098 T02440206
KIAD 220052Z 08004KT 10SM FEW045 BKN065 BKN200 24/20 A2982 RMK AO2 SLP094 T02440200

METAR Board
Radar Display
Forecast Discussion

FOR SITUATIONAL AWARENESS. NOT TO BE USED FOR FLIGHT PLANNING PURPOSES.